sensor_id;sensor_type;location;lat;lon;timestamp;temperature;humidity
17092;DHT22;8661;45.700;4.880;2023-06-26T00:01:31;24.00;96.30
17092;DHT22;8661;45.700;4.880;2023-06-26T00:03:58;24.00;96.40
17092;DHT22;8661;45.700;4.880;2023-06-26T00:06:25;24.00;96.60
17092;DHT22;8661;45.700;4.880;2023-06-26T00:08:57;23.90;96.70
17092;DHT22;8661;45.700;4.880;2023-06-26T00:11:24;23.80;96.80
17092;DHT22;8661;45.700;4.880;2023-06-26T00:13:53;23.80;96.80
17092;DHT22;8661;45.700;4.880;2023-06-26T00:16:19;23.80;96.90
17092;DHT22;8661;45.700;4.880;2023-06-26T00:18:46;23.70;97.10
17092;DHT22;8661;45.700;4.880;2023-06-26T00:21:13;23.70;97.40
17092;DHT22;8661;45.700;4.880;2023-06-26T00:23:40;23.70;97.60
17092;DHT22;8661;45.700;4.880;2023-06-26T00:26:08;23.70;97.90
17092;DHT22;8661;45.700;4.880;2023-06-26T00:28:35;23.60;98.10
17092;DHT22;8661;45.700;4.880;2023-06-26T00:31:02;23.60;98.30
17092;DHT22;8661;45.700;4.880;2023-06-26T00:33:29;23.60;98.50
17092;DHT22;8661;45.700;4.880;2023-06-26T00:35:56;23.60;98.60
17092;DHT22;8661;45.700;4.880;2023-06-26T00:38:23;23.50;98.80
17092;DHT22;8661;45.700;4.880;2023-06-26T00:40:50;23.50;99.20
17092;DHT22;8661;45.700;4.880;2023-06-26T00:43:18;23.60;99.50
17092;DHT22;8661;45.700;4.880;2023-06-26T00:45:45;23.50;99.60
17092;DHT22;8661;45.700;4.880;2023-06-26T00:48:12;23.50;99.90
17092;DHT22;8661;45.700;4.880;2023-06-26T00:50:39;23.40;99.90
17092;DHT22;8661;45.700;4.880;2023-06-26T00:53:06;23.40;99.90
17092;DHT22;8661;45.700;4.880;2023-06-26T00:55:33;23.40;99.90
17092;DHT22;8661;45.700;4.880;2023-06-26T00:58:00;23.40;99.90
17092;DHT22;8661;45.700;4.880;2023-06-26T01:00:28;23.40;99.90
17092;DHT22;8661;45.700;4.880;2023-06-26T01:02:55;23.30;99.90
17092;DHT22;8661;45.700;4.880;2023-06-26T01:05:25;23.30;99.90
17092;DHT22;8661;45.700;4.880;2023-06-26T01:07:53;23.30;99.90
17092;DHT22;8661;45.700;4.880;2023-06-26T01:10:20;23.30;99.90
17092;DHT22;8661;45.700;4.880;2023-06-26T01:12:47;23.30;99.90
17092;DHT22;8661;45.700;4.880;2023-06-26T01:15:14;23.20;99.90
17092;DHT22;8661;45.700;4.880;2023-06-26T01:17:43;23.20;99.90
17092;DHT22;8661;45.700;4.880;2023-06-26T01:20:13;23.10;99.90
17092;DHT22;8661;45.700;4.880;2023-06-26T01:22:47;23.10;99.90
17092;DHT22;8661;45.700;4.880;2023-06-26T01:25:23;23.00;99.90
17092;DHT22;8661;45.700;4.880;2023-06-26T01:27:57;22.90;99.90
17092;DHT22;8661;45.700;4.880;2023-06-26T01:30:25;22.90;99.90
17092;DHT22;8661;45.700;4.880;2023-06-26T01:32:52;22.80;99.90
17092;DHT22;8661;45.700;4.880;2023-06-26T01:35:19;22.80;99.90
17092;DHT22;8661;45.700;4.880;2023-06-26T01:37:46;22.80;99.90
17092;DHT22;8661;45.700;4.880;2023-06-26T01:40:16;22.70;99.90
17092;DHT22;8661;45.700;4.880;2023-06-26T01:42:43;22.70;99.90
17092;DHT22;8661;45.700;4.880;2023-06-26T01:45:14;22.70;99.90
17092;DHT22;8661;45.700;4.880;2023-06-26T01:47:48;22.60;99.90
17092;DHT22;8661;45.700;4.880;2023-06-26T01:50:18;22.60;99.90
17092;DHT22;8661;45.700;4.880;2023-06-26T01:53:02;22.50;99.90
17092;DHT22;8661;45.700;4.880;2023-06-26T01:55:34;22.50;99.90
17092;DHT22;8661;45.700;4.880;2023-06-26T01:58:02;22.50;99.90
17092;DHT22;8661;45.700;4.880;2023-06-26T02:00:31;22.40;99.90
17092;DHT22;8661;45.700;4.880;2023-06-26T02:02:59;22.40;99.90
17092;DHT22;8661;45.700;4.880;2023-06-26T02:05:25;22.40;99.90
17092;DHT22;8661;45.700;4.880;2023-06-26T02:07:52;22.40;99.90
17092;DHT22;8661;45.700;4.880;2023-06-26T02:10:19;22.30;99.90
17092;DHT22;8661;45.700;4.880;2023-06-26T02:12:46;22.30;99.90
17092;DHT22;8661;45.700;4.880;2023-06-26T02:15:13;22.20;99.90
17092;DHT22;8661;45.700;4.880;2023-06-26T02:17:41;22.20;99.90
17092;DHT22;8661;45.700;4.880;2023-06-26T02:20:09;22.20;99.90
17092;DHT22;8661;45.700;4.880;2023-06-26T02:22:36;22.10;99.90
17092;DHT22;8661;45.700;4.880;2023-06-26T02:25:03;22.10;99.90
17092;DHT22;8661;45.700;4.880;2023-06-26T02:27:30;22.10;99.90
17092;DHT22;8661;45.700;4.880;2023-06-26T02:29:57;22.10;99.90
17092;DHT22;8661;45.700;4.880;2023-06-26T02:32:24;22.00;99.90
17092;DHT22;8661;45.700;4.880;2023-06-26T02:34:52;22.00;99.90
17092;DHT22;8661;45.700;4.880;2023-06-26T02:37:19;22.00;99.90
17092;DHT22;8661;45.700;4.880;2023-06-26T02:39:46;22.00;99.90
17092;DHT22;8661;45.700;4.880;2023-06-26T02:42:13;22.00;99.90
17092;DHT22;8661;45.700;4.880;2023-06-26T02:44:40;22.10;99.90
17092;DHT22;8661;45.700;4.880;2023-06-26T02:47:07;22.10;99.90
17092;DHT22;8661;45.700;4.880;2023-06-26T02:49:34;22.20;99.90
17092;DHT22;8661;45.700;4.880;2023-06-26T02:52:03;22.20;99.90
17092;DHT22;8661;45.700;4.880;2023-06-26T02:54:29;22.20;99.90
17092;DHT22;8661;45.700;4.880;2023-06-26T02:56:56;22.20;99.90
17092;DHT22;8661;45.700;4.880;2023-06-26T02:59:23;22.20;99.90
17092;DHT22;8661;45.700;4.880;2023-06-26T03:01:50;22.10;99.90
17092;DHT22;8661;45.700;4.880;2023-06-26T03:04:17;22.00;99.90
17092;DHT22;8661;45.700;4.880;2023-06-26T03:06:47;22.00;99.90
17092;DHT22;8661;45.700;4.880;2023-06-26T03:09:15;22.00;99.90
17092;DHT22;8661;45.700;4.880;2023-06-26T03:11:42;22.00;99.90
17092;DHT22;8661;45.700;4.880;2023-06-26T03:14:09;21.90;99.90
17092;DHT22;8661;45.700;4.880;2023-06-26T03:16:36;21.90;99.90
17092;DHT22;8661;45.700;4.880;2023-06-26T03:19:03;21.90;99.90
17092;DHT22;8661;45.700;4.880;2023-06-26T03:21:30;21.90;99.90
17092;DHT22;8661;45.700;4.880;2023-06-26T03:23:57;21.90;99.90
17092;DHT22;8661;45.700;4.880;2023-06-26T03:26:25;21.80;99.90
17092;DHT22;8661;45.700;4.880;2023-06-26T03:28:54;21.80;99.90
17092;DHT22;8661;45.700;4.880;2023-06-26T03:31:20;21.80;99.90
17092;DHT22;8661;45.700;4.880;2023-06-26T03:33:47;21.80;99.90
17092;DHT22;8661;45.700;4.880;2023-06-26T03:36:14;21.80;99.90
17092;DHT22;8661;45.700;4.880;2023-06-26T03:38:41;21.80;99.90
17092;DHT22;8661;45.700;4.880;2023-06-26T03:41:08;21.70;99.90
17092;DHT22;8661;45.700;4.880;2023-06-26T03:43:36;21.70;99.90
17092;DHT22;8661;45.700;4.880;2023-06-26T03:46:03;21.70;99.90
17092;DHT22;8661;45.700;4.880;2023-06-26T03:48:30;21.70;99.90
17092;DHT22;8661;45.700;4.880;2023-06-26T03:50:57;21.70;99.90
17092;DHT22;8661;45.700;4.880;2023-06-26T03:53:24;21.70;99.90
17092;DHT22;8661;45.700;4.880;2023-06-26T03:55:51;21.70;99.90
17092;DHT22;8661;45.700;4.880;2023-06-26T03:58:18;21.80;99.90
17092;DHT22;8661;45.700;4.880;2023-06-26T04:00:46;21.70;99.90
17092;DHT22;8661;45.700;4.880;2023-06-26T04:03:13;21.80;99.90
17092;DHT22;8661;45.700;4.880;2023-06-26T04:05:40;21.80;99.90
17092;DHT22;8661;45.700;4.880;2023-06-26T04:08:07;21.80;99.90
17092;DHT22;8661;45.700;4.880;2023-06-26T04:10:34;21.80;99.90
17092;DHT22;8661;45.700;4.880;2023-06-26T04:13:01;21.80;99.90
17092;DHT22;8661;45.700;4.880;2023-06-26T04:15:29;21.90;99.90
17092;DHT22;8661;45.700;4.880;2023-06-26T04:17:58;21.90;99.90
17092;DHT22;8661;45.700;4.880;2023-06-26T04:20:24;21.90;99.90
17092;DHT22;8661;45.700;4.880;2023-06-26T04:22:51;21.90;99.90
17092;DHT22;8661;45.700;4.880;2023-06-26T04:25:18;21.90;99.90
17092;DHT22;8661;45.700;4.880;2023-06-26T04:27:45;21.90;99.90
17092;DHT22;8661;45.700;4.880;2023-06-26T04:30:13;22.00;99.90
17092;DHT22;8661;45.700;4.880;2023-06-26T04:32:39;22.00;99.90
17092;DHT22;8661;45.700;4.880;2023-06-26T04:35:08;22.10;99.90
17092;DHT22;8661;45.700;4.880;2023-06-26T04:37:35;22.10;99.90
17092;DHT22;8661;45.700;4.880;2023-06-26T04:40:05;22.20;99.90
17092;DHT22;8661;45.700;4.880;2023-06-26T04:42:35;22.20;99.90
17092;DHT22;8661;45.700;4.880;2023-06-26T04:45:01;22.30;99.90
17092;DHT22;8661;45.700;4.880;2023-06-26T04:47:28;22.40;99.90
17092;DHT22;8661;45.700;4.880;2023-06-26T04:49:55;22.50;99.90
17092;DHT22;8661;45.700;4.880;2023-06-26T04:52:24;22.50;99.90
17092;DHT22;8661;45.700;4.880;2023-06-26T04:54:51;22.70;99.90
17092;DHT22;8661;45.700;4.880;2023-06-26T04:57:18;22.80;99.90
17092;DHT22;8661;45.700;4.880;2023-06-26T04:59:45;22.90;99.90
17092;DHT22;8661;45.700;4.880;2023-06-26T05:02:12;23.00;99.90
17092;DHT22;8661;45.700;4.880;2023-06-26T05:04:40;23.10;99.90
17092;DHT22;8661;45.700;4.880;2023-06-26T05:07:08;23.40;99.90
17092;DHT22;8661;45.700;4.880;2023-06-26T05:09:36;24.00;99.90
17092;DHT22;8661;45.700;4.880;2023-06-26T05:12:03;24.60;99.90
17092;DHT22;8661;45.700;4.880;2023-06-26T05:14:30;24.80;99.90
17092;DHT22;8661;45.700;4.880;2023-06-26T05:16:57;24.70;99.90
17092;DHT22;8661;45.700;4.880;2023-06-26T05:19:24;24.60;99.90
17092;DHT22;8661;45.700;4.880;2023-06-26T05:21:52;24.50;99.90
17092;DHT22;8661;45.700;4.880;2023-06-26T05:24:19;24.60;99.90
17092;DHT22;8661;45.700;4.880;2023-06-26T05:26:49;24.60;99.90
17092;DHT22;8661;45.700;4.880;2023-06-26T05:29:16;24.70;99.90
17092;DHT22;8661;45.700;4.880;2023-06-26T05:31:45;24.80;99.90
17092;DHT22;8661;45.700;4.880;2023-06-26T05:34:13;25.00;99.90
17092;DHT22;8661;45.700;4.880;2023-06-26T05:36:41;25.20;99.90
17092;DHT22;8661;45.700;4.880;2023-06-26T05:39:09;25.30;99.90
17092;DHT22;8661;45.700;4.880;2023-06-26T05:41:36;25.50;99.90
17092;DHT22;8661;45.700;4.880;2023-06-26T05:44:05;25.70;99.90
17092;DHT22;8661;45.700;4.880;2023-06-26T05:46:32;25.90;99.90
17092;DHT22;8661;45.700;4.880;2023-06-26T05:48:58;26.20;99.90
17092;DHT22;8661;45.700;4.880;2023-06-26T05:51:27;26.40;99.90
17092;DHT22;8661;45.700;4.880;2023-06-26T05:53:55;26.60;99.90
17092;DHT22;8661;45.700;4.880;2023-06-26T05:56:23;26.70;99.90
17092;DHT22;8661;45.700;4.880;2023-06-26T05:58:51;27.10;99.90
17092;DHT22;8661;45.700;4.880;2023-06-26T06:01:19;27.30;99.90
17092;DHT22;8661;45.700;4.880;2023-06-26T06:03:46;27.30;99.30
17092;DHT22;8661;45.700;4.880;2023-06-26T06:06:13;27.50;98.80
17092;DHT22;8661;45.700;4.880;2023-06-26T06:08:41;27.70;98.40
17092;DHT22;8661;45.700;4.880;2023-06-26T06:11:08;28.00;97.80
17092;DHT22;8661;45.700;4.880;2023-06-26T06:13:35;28.10;97.10
17092;DHT22;8661;45.700;4.880;2023-06-26T06:16:02;28.30;96.60
17092;DHT22;8661;45.700;4.880;2023-06-26T06:18:30;28.50;96.00
17092;DHT22;8661;45.700;4.880;2023-06-26T06:20:57;28.70;95.40
17092;DHT22;8661;45.700;4.880;2023-06-26T06:23:24;28.80;94.70
17092;DHT22;8661;45.700;4.880;2023-06-26T06:25:51;28.90;94.10
17092;DHT22;8661;45.700;4.880;2023-06-26T06:28:18;29.10;94.10
17092;DHT22;8661;45.700;4.880;2023-06-26T06:30:45;29.40;93.20
17092;DHT22;8661;45.700;4.880;2023-06-26T06:33:13;29.60;92.60
17092;DHT22;8661;45.700;4.880;2023-06-26T06:35:41;29.70;92.10
17092;DHT22;8661;45.700;4.880;2023-06-26T06:38:08;30.00;91.50
17092;DHT22;8661;45.700;4.880;2023-06-26T06:40:35;30.30;90.90
17092;DHT22;8661;45.700;4.880;2023-06-26T06:43:02;30.50;90.30
17092;DHT22;8661;45.700;4.880;2023-06-26T06:45:29;30.70;89.30
17092;DHT22;8661;45.700;4.880;2023-06-26T06:47:56;30.90;88.00
17092;DHT22;8661;45.700;4.880;2023-06-26T06:50:23;31.20;87.50
17092;DHT22;8661;45.700;4.880;2023-06-26T06:52:51;31.30;86.90
17092;DHT22;8661;45.700;4.880;2023-06-26T06:55:18;31.50;85.40
17092;DHT22;8661;45.700;4.880;2023-06-26T06:57:45;31.70;84.30
17092;DHT22;8661;45.700;4.880;2023-06-26T07:00:13;31.70;83.40
17092;DHT22;8661;45.700;4.880;2023-06-26T07:02:43;32.00;83.10
17092;DHT22;8661;45.700;4.880;2023-06-26T07:05:11;32.00;82.20
17092;DHT22;8661;45.700;4.880;2023-06-26T07:07:38;32.00;81.80
17092;DHT22;8661;45.700;4.880;2023-06-26T07:10:10;32.30;81.00
17092;DHT22;8661;45.700;4.880;2023-06-26T07:12:37;32.60;80.20
17092;DHT22;8661;45.700;4.880;2023-06-26T07:15:06;32.90;79.40
17092;DHT22;8661;45.700;4.880;2023-06-26T07:17:33;33.10;78.20
17092;DHT22;8661;45.700;4.880;2023-06-26T07:20:01;33.20;77.80
17092;DHT22;8661;45.700;4.880;2023-06-26T07:22:31;33.30;77.50
17092;DHT22;8661;45.700;4.880;2023-06-26T07:24:58;33.50;77.60
17092;DHT22;8661;45.700;4.880;2023-06-26T07:27:26;33.60;76.40
17092;DHT22;8661;45.700;4.880;2023-06-26T07:29:53;33.70;75.30
17092;DHT22;8661;45.700;4.880;2023-06-26T07:32:20;33.90;74.40
17092;DHT22;8661;45.700;4.880;2023-06-26T07:34:46;34.10;74.70
17092;DHT22;8661;45.700;4.880;2023-06-26T07:37:15;34.30;74.20
17092;DHT22;8661;45.700;4.880;2023-06-26T07:39:41;34.40;72.90
17092;DHT22;8661;45.700;4.880;2023-06-26T07:42:08;34.60;72.80
17092;DHT22;8661;45.700;4.880;2023-06-26T07:44:37;34.80;72.10
17092;DHT22;8661;45.700;4.880;2023-06-26T07:47:04;35.10;71.40
17092;DHT22;8661;45.700;4.880;2023-06-26T07:49:31;35.20;70.20
17092;DHT22;8661;45.700;4.880;2023-06-26T07:51:58;35.50;70.40
17092;DHT22;8661;45.700;4.880;2023-06-26T07:54:25;35.50;69.90
17092;DHT22;8661;45.700;4.880;2023-06-26T07:56:53;35.70;69.50
17092;DHT22;8661;45.700;4.880;2023-06-26T07:59:21;35.70;69.10
17092;DHT22;8661;45.700;4.880;2023-06-26T08:01:50;35.70;69.20
17092;DHT22;8661;45.700;4.880;2023-06-26T08:04:18;35.90;69.10
17092;DHT22;8661;45.700;4.880;2023-06-26T08:06:45;36.10;68.40
17092;DHT22;8661;45.700;4.880;2023-06-26T08:09:12;36.40;69.20
17092;DHT22;8661;45.700;4.880;2023-06-26T08:11:39;36.00;67.40
17092;DHT22;8661;45.700;4.880;2023-06-26T08:14:06;35.70;68.10
17092;DHT22;8661;45.700;4.880;2023-06-26T08:16:33;36.10;67.30
17092;DHT22;8661;45.700;4.880;2023-06-26T08:19:01;36.30;66.50
17092;DHT22;8661;45.700;4.880;2023-06-26T08:21:28;36.50;66.40
17092;DHT22;8661;45.700;4.880;2023-06-26T08:23:55;36.70;65.50
17092;DHT22;8661;45.700;4.880;2023-06-26T08:26:22;37.00;65.20
17092;DHT22;8661;45.700;4.880;2023-06-26T08:28:49;37.30;64.70
17092;DHT22;8661;45.700;4.880;2023-06-26T08:31:16;37.50;64.80
17092;DHT22;8661;45.700;4.880;2023-06-26T08:33:43;37.50;63.90
17092;DHT22;8661;45.700;4.880;2023-06-26T08:36:11;37.70;63.50
17092;DHT22;8661;45.700;4.880;2023-06-26T08:38:38;37.90;63.50
17092;DHT22;8661;45.700;4.880;2023-06-26T08:41:06;38.00;61.80
17092;DHT22;8661;45.700;4.880;2023-06-26T08:43:34;37.80;62.70
17092;DHT22;8661;45.700;4.880;2023-06-26T08:46:02;37.90;62.70
17092;DHT22;8661;45.700;4.880;2023-06-26T08:48:31;38.00;61.20
17092;DHT22;8661;45.700;4.880;2023-06-26T08:51:01;38.00;59.90
17092;DHT22;8661;45.700;4.880;2023-06-26T08:53:33;37.30;61.80
17092;DHT22;8661;45.700;4.880;2023-06-26T08:56:00;37.50;61.50
17092;DHT22;8661;45.700;4.880;2023-06-26T08:58:28;37.90;60.90
17092;DHT22;8661;45.700;4.880;2023-06-26T09:00:55;38.20;60.60
17092;DHT22;8661;45.700;4.880;2023-06-26T09:03:23;38.50;60.50
17092;DHT22;8661;45.700;4.880;2023-06-26T09:05:50;38.70;59.90
17092;DHT22;8661;45.700;4.880;2023-06-26T09:08:17;39.00;60.00
17092;DHT22;8661;45.700;4.880;2023-06-26T09:10:45;39.20;58.90
17092;DHT22;8661;45.700;4.880;2023-06-26T09:13:16;39.20;59.00
17092;DHT22;8661;45.700;4.880;2023-06-26T09:15:44;39.10;57.80
17092;DHT22;8661;45.700;4.880;2023-06-26T09:18:11;38.90;58.90
17092;DHT22;8661;45.700;4.880;2023-06-26T09:20:38;39.10;58.90
17092;DHT22;8661;45.700;4.880;2023-06-26T09:23:06;39.40;59.00
17092;DHT22;8661;45.700;4.880;2023-06-26T09:25:33;39.60;59.20
17092;DHT22;8661;45.700;4.880;2023-06-26T09:28:02;39.50;58.00
17092;DHT22;8661;45.700;4.880;2023-06-26T09:30:28;39.40;57.80
17092;DHT22;8661;45.700;4.880;2023-06-26T09:33:13;39.70;58.70
17092;DHT22;8661;45.700;4.880;2023-06-26T09:35:40;39.30;56.80
17092;DHT22;8661;45.700;4.880;2023-06-26T09:38:07;39.00;58.50
17092;DHT22;8661;45.700;4.880;2023-06-26T09:40:34;39.00;57.80
17092;DHT22;8661;45.700;4.880;2023-06-26T09:43:05;39.10;57.80
17092;DHT22;8661;45.700;4.880;2023-06-26T09:45:32;39.50;57.80
17092;DHT22;8661;45.700;4.880;2023-06-26T09:48:00;39.80;56.80
17092;DHT22;8661;45.700;4.880;2023-06-26T09:50:29;40.10;56.30
17092;DHT22;8661;45.700;4.880;2023-06-26T09:53:07;40.20;56.50
17092;DHT22;8661;45.700;4.880;2023-06-26T09:55:35;40.60;55.90
17092;DHT22;8661;45.700;4.880;2023-06-26T09:58:02;40.90;56.00
17092;DHT22;8661;45.700;4.880;2023-06-26T10:00:31;41.10;55.80
17092;DHT22;8661;45.700;4.880;2023-06-26T10:02:58;40.60;56.60
17092;DHT22;8661;45.700;4.880;2023-06-26T10:05:25;39.70;57.10
17092;DHT22;8661;45.700;4.880;2023-06-26T10:07:53;38.90;59.00
17092;DHT22;8661;45.700;4.880;2023-06-26T10:10:23;38.50;59.10
17092;DHT22;8661;45.700;4.880;2023-06-26T10:12:53;38.80;59.80
17092;DHT22;8661;45.700;4.880;2023-06-26T10:15:21;39.50;59.60
17092;DHT22;8661;45.700;4.880;2023-06-26T10:17:52;39.50;59.00
17092;DHT22;8661;45.700;4.880;2023-06-26T10:20:22;38.80;58.60
17092;DHT22;8661;45.700;4.880;2023-06-26T10:22:55;38.70;59.40
17092;DHT22;8661;45.700;4.880;2023-06-26T10:25:25;39.20;59.60
17092;DHT22;8661;45.700;4.880;2023-06-26T10:27:54;39.50;59.20
17092;DHT22;8661;45.700;4.880;2023-06-26T10:30:25;39.20;59.40
17092;DHT22;8661;45.700;4.880;2023-06-26T10:32:55;38.50;58.80
17092;DHT22;8661;45.700;4.880;2023-06-26T10:35:23;38.10;59.50
17092;DHT22;8661;45.700;4.880;2023-06-26T10:37:51;37.80;61.00
17092;DHT22;8661;45.700;4.880;2023-06-26T10:40:24;37.30;61.80
17092;DHT22;8661;45.700;4.880;2023-06-26T10:43:05;37.20;61.30
17092;DHT22;8661;45.700;4.880;2023-06-26T10:45:34;37.50;63.60
17092;DHT22;8661;45.700;4.880;2023-06-26T10:48:02;38.10;61.10
17092;DHT22;8661;45.700;4.880;2023-06-26T10:50:31;38.50;60.00
17092;DHT22;8661;45.700;4.880;2023-06-26T10:53:21;38.80;59.60
17092;DHT22;8661;45.700;4.880;2023-06-26T10:55:54;39.40;59.20
17092;DHT22;8661;45.700;4.880;2023-06-26T10:58:33;39.90;58.20
17092;DHT22;8661;45.700;4.880;2023-06-26T11:01:20;39.70;56.90
17092;DHT22;8661;45.700;4.880;2023-06-26T11:04:00;39.70;59.00
17092;DHT22;8661;45.700;4.880;2023-06-26T11:06:28;39.90;58.60
17092;DHT22;8661;45.700;4.880;2023-06-26T11:09:00;40.40;57.30
17092;DHT22;8661;45.700;4.880;2023-06-26T11:11:55;40.90;56.90
17092;DHT22;8661;45.700;4.880;2023-06-26T11:14:25;40.20;54.60
17092;DHT22;8661;45.700;4.880;2023-06-26T11:16:52;40.00;57.30
17092;DHT22;8661;45.700;4.880;2023-06-26T11:19:22;40.30;56.60
17092;DHT22;8661;45.700;4.880;2023-06-26T11:21:54;40.10;56.40
17092;DHT22;8661;45.700;4.880;2023-06-26T11:24:24;40.40;56.80
17092;DHT22;8661;45.700;4.880;2023-06-26T11:26:51;40.50;56.20
17092;DHT22;8661;45.700;4.880;2023-06-26T11:29:19;40.80;56.10
17092;DHT22;8661;45.700;4.880;2023-06-26T11:31:46;40.90;54.90
17092;DHT22;8661;45.700;4.880;2023-06-26T11:34:13;41.00;54.80
17092;DHT22;8661;45.700;4.880;2023-06-26T11:36:42;41.30;54.50
17092;DHT22;8661;45.700;4.880;2023-06-26T11:39:12;41.40;54.90
17092;DHT22;8661;45.700;4.880;2023-06-26T11:41:40;41.60;54.40
17092;DHT22;8661;45.700;4.880;2023-06-26T11:44:08;40.70;55.00
17092;DHT22;8661;45.700;4.880;2023-06-26T11:46:36;40.60;56.20
17092;DHT22;8661;45.700;4.880;2023-06-26T11:49:04;41.00;54.80
17092;DHT22;8661;45.700;4.880;2023-06-26T11:51:31;41.60;56.30
17092;DHT22;8661;45.700;4.880;2023-06-26T11:54:01;41.60;54.70
17092;DHT22;8661;45.700;4.880;2023-06-26T11:56:28;40.90;54.90
17092;DHT22;8661;45.700;4.880;2023-06-26T11:58:56;41.10;55.80
17092;DHT22;8661;45.700;4.880;2023-06-26T12:01:24;40.90;55.00
17092;DHT22;8661;45.700;4.880;2023-06-26T12:03:53;40.90;54.70
17092;DHT22;8661;45.700;4.880;2023-06-26T12:06:20;41.20;54.40
17092;DHT22;8661;45.700;4.880;2023-06-26T12:08:47;41.50;54.00
17092;DHT22;8661;45.700;4.880;2023-06-26T12:11:17;41.50;53.10
17092;DHT22;8661;45.700;4.880;2023-06-26T12:13:44;41.50;52.60
17092;DHT22;8661;45.700;4.880;2023-06-26T12:16:12;41.80;53.50
17092;DHT22;8661;45.700;4.880;2023-06-26T12:18:40;42.00;52.60
17092;DHT22;8661;45.700;4.880;2023-06-26T12:21:08;42.00;52.70
17092;DHT22;8661;45.700;4.880;2023-06-26T12:23:39;42.00;51.20
17092;DHT22;8661;45.700;4.880;2023-06-26T12:26:20;42.00;50.30
17092;DHT22;8661;45.700;4.880;2023-06-26T12:28:47;41.90;51.30
17092;DHT22;8661;45.700;4.880;2023-06-26T12:31:14;42.10;51.50
17092;DHT22;8661;45.700;4.880;2023-06-26T12:33:42;42.40;51.70
17092;DHT22;8661;45.700;4.880;2023-06-26T12:36:13;42.40;51.50
17092;DHT22;8661;45.700;4.880;2023-06-26T12:38:40;42.30;50.60
17092;DHT22;8661;45.700;4.880;2023-06-26T12:41:12;42.20;50.40
17092;DHT22;8661;45.700;4.880;2023-06-26T12:43:41;42.50;50.10
17092;DHT22;8661;45.700;4.880;2023-06-26T12:46:08;42.50;49.40
17092;DHT22;8661;45.700;4.880;2023-06-26T12:48:39;42.50;50.30
17092;DHT22;8661;45.700;4.880;2023-06-26T12:51:10;42.50;50.60
17092;DHT22;8661;45.700;4.880;2023-06-26T12:53:37;42.50;50.90
17092;DHT22;8661;45.700;4.880;2023-06-26T12:56:05;42.50;50.00
17092;DHT22;8661;45.700;4.880;2023-06-26T12:58:33;42.60;49.30
17092;DHT22;8661;45.700;4.880;2023-06-26T13:01:02;42.60;48.80
17092;DHT22;8661;45.700;4.880;2023-06-26T13:03:30;42.40;49.50
17092;DHT22;8661;45.700;4.880;2023-06-26T13:05:57;42.50;49.50
17092;DHT22;8661;45.700;4.880;2023-06-26T13:08:24;42.40;48.70
17092;DHT22;8661;45.700;4.880;2023-06-26T13:10:51;42.30;49.10
17092;DHT22;8661;45.700;4.880;2023-06-26T13:13:18;42.30;48.90
17092;DHT22;8661;45.700;4.880;2023-06-26T13:15:45;42.00;48.90
17092;DHT22;8661;45.700;4.880;2023-06-26T13:18:13;42.20;49.00
17092;DHT22;8661;45.700;4.880;2023-06-26T13:20:40;42.20;48.70
17092;DHT22;8661;45.700;4.880;2023-06-26T13:23:07;42.20;49.50
17092;DHT22;8661;45.700;4.880;2023-06-26T13:25:34;42.40;49.00
17092;DHT22;8661;45.700;4.880;2023-06-26T13:28:01;42.50;49.20
17092;DHT22;8661;45.700;4.880;2023-06-26T13:30:28;42.50;48.90
17092;DHT22;8661;45.700;4.880;2023-06-26T13:32:55;42.50;48.20
17092;DHT22;8661;45.700;4.880;2023-06-26T13:35:23;42.80;48.80
17092;DHT22;8661;45.700;4.880;2023-06-26T13:37:50;42.70;47.60
17092;DHT22;8661;45.700;4.880;2023-06-26T13:40:17;42.80;48.10
17092;DHT22;8661;45.700;4.880;2023-06-26T13:42:44;42.90;48.70
17092;DHT22;8661;45.700;4.880;2023-06-26T13:45:11;42.80;48.40
17092;DHT22;8661;45.700;4.880;2023-06-26T13:47:38;42.80;48.00
17092;DHT22;8661;45.700;4.880;2023-06-26T13:50:07;42.30;47.60
17092;DHT22;8661;45.700;4.880;2023-06-26T13:52:36;41.70;48.60
17092;DHT22;8661;45.700;4.880;2023-06-26T13:55:04;41.90;48.90
17092;DHT22;8661;45.700;4.880;2023-06-26T13:57:31;42.10;49.50
17092;DHT22;8661;45.700;4.880;2023-06-26T13:59:59;42.30;48.50
17092;DHT22;8661;45.700;4.880;2023-06-26T14:02:27;42.50;48.40
17092;DHT22;8661;45.700;4.880;2023-06-26T14:04:54;42.60;47.80
17092;DHT22;8661;45.700;4.880;2023-06-26T14:07:21;42.80;47.70
17092;DHT22;8661;45.700;4.880;2023-06-26T14:09:49;42.80;48.20
17092;DHT22;8661;45.700;4.880;2023-06-26T14:12:16;42.60;49.20
17092;DHT22;8661;45.700;4.880;2023-06-26T14:14:44;42.40;49.00
17092;DHT22;8661;45.700;4.880;2023-06-26T14:17:10;42.20;49.30
17092;DHT22;8661;45.700;4.880;2023-06-26T14:19:41;41.90;49.10
17092;DHT22;8661;45.700;4.880;2023-06-26T14:22:08;41.80;48.50
17092;DHT22;8661;45.700;4.880;2023-06-26T14:24:35;41.30;48.70
17092;DHT22;8661;45.700;4.880;2023-06-26T14:27:04;41.30;49.90
17092;DHT22;8661;45.700;4.880;2023-06-26T14:29:31;41.20;49.30
17092;DHT22;8661;45.700;4.880;2023-06-26T14:31:58;41.00;48.90
17092;DHT22;8661;45.700;4.880;2023-06-26T14:34:25;40.40;49.50
17092;DHT22;8661;45.700;4.880;2023-06-26T14:36:52;40.00;51.10
17092;DHT22;8661;45.700;4.880;2023-06-26T14:39:19;39.50;51.40
17092;DHT22;8661;45.700;4.880;2023-06-26T14:41:46;39.10;52.70
17092;DHT22;8661;45.700;4.880;2023-06-26T14:44:14;38.90;52.60
17092;DHT22;8661;45.700;4.880;2023-06-26T14:46:41;38.80;53.00
17092;DHT22;8661;45.700;4.880;2023-06-26T14:49:09;38.80;53.40
17092;DHT22;8661;45.700;4.880;2023-06-26T14:51:36;38.60;53.20
17092;DHT22;8661;45.700;4.880;2023-06-26T14:54:04;38.30;53.10
17092;DHT22;8661;45.700;4.880;2023-06-26T14:56:31;38.00;53.60
17092;DHT22;8661;45.700;4.880;2023-06-26T14:58:58;37.90;53.30
17092;DHT22;8661;45.700;4.880;2023-06-26T15:01:26;37.80;53.80
17092;DHT22;8661;45.700;4.880;2023-06-26T15:03:53;37.60;53.40
17092;DHT22;8661;45.700;4.880;2023-06-26T15:06:20;37.00;54.20
17092;DHT22;8661;45.700;4.880;2023-06-26T15:08:47;36.60;55.10
17092;DHT22;8661;45.700;4.880;2023-06-26T15:11:14;36.60;54.90
17092;DHT22;8661;45.700;4.880;2023-06-26T15:13:41;36.70;55.00
17092;DHT22;8661;45.700;4.880;2023-06-26T15:16:07;36.60;55.20
17092;DHT22;8661;45.700;4.880;2023-06-26T15:18:36;36.40;55.70
17092;DHT22;8661;45.700;4.880;2023-06-26T15:21:03;36.20;55.40
17092;DHT22;8661;45.700;4.880;2023-06-26T15:23:30;35.90;55.60
17092;DHT22;8661;45.700;4.880;2023-06-26T15:25:57;35.60;56.10
17092;DHT22;8661;45.700;4.880;2023-06-26T15:28:24;35.30;56.80
17092;DHT22;8661;45.700;4.880;2023-06-26T15:30:51;35.00;56.90
17092;DHT22;8661;45.700;4.880;2023-06-26T15:33:18;34.70;57.30
17092;DHT22;8661;45.700;4.880;2023-06-26T15:35:46;34.50;57.60
17092;DHT22;8661;45.700;4.880;2023-06-26T15:38:13;34.50;58.20
17092;DHT22;8661;45.700;4.880;2023-06-26T15:40:40;34.60;58.30
17092;DHT22;8661;45.700;4.880;2023-06-26T15:43:07;34.40;58.20
17092;DHT22;8661;45.700;4.880;2023-06-26T15:45:34;34.40;58.40
17092;DHT22;8661;45.700;4.880;2023-06-26T15:48:00;34.20;58.60
17092;DHT22;8661;45.700;4.880;2023-06-26T15:50:27;34.10;58.60